Chelsea, South Dakota
Current Conditions -  °F | °C
As of 2:53 PM on Friday 31 Oct 2014 (Local Time) from KABR Reporting Station
Clear Clear  
Wind Chill: 33°   Ceiling: Unl
Heat Index: 41°   Visibility: 10mi
Dew Point: 16°   Wind: 14mph
Humidity: 36%   Direction: 170°S
Pressure: 30.47"   Gusts: NA
Location:  45.1541°N, 98.6786°W
Report Text: KABR 311953Z AUTO 17012KT 10SM CLR 05/M09 A3047 RMK AO2 SLP335 T00501089
Loading
Personal Weather Stations






























Interactive Weather Map
Tropical Storm Tracking
New forecast layout! Learn more

10-Day Weather Forecast

Advertisements
Track Severe Weather on mobile